sensor_id;sensor_type;location;lat;lon;timestamp;P1;durP1;ratioP1;P2;durP2;ratioP2
18973;SDS011;9621;48.690;9.466;2024-01-15T00:01:51;72.53;;;26.10;;
18973;SDS011;9621;48.690;9.466;2024-01-15T00:04:19;68.87;;;26.17;;
18973;SDS011;9621;48.690;9.466;2024-01-15T00:06:46;57.87;;;23.97;;
18973;SDS011;9621;48.690;9.466;2024-01-15T00:09:13;62.30;;;25.50;;
18973;SDS011;9621;48.690;9.466;2024-01-15T00:11:40;67.63;;;23.70;;
18973;SDS011;9621;48.690;9.466;2024-01-15T00:14:07;55.13;;;23.07;;
18973;SDS011;9621;48.690;9.466;2024-01-15T00:16:36;62.83;;;24.77;;
18973;SDS011;9621;48.690;9.466;2024-01-15T00:19:03;65.33;;;25.03;;
18973;SDS011;9621;48.690;9.466;2024-01-15T00:21:30;63.23;;;24.00;;
18973;SDS011;9621;48.690;9.466;2024-01-15T00:23:56;67.00;;;25.17;;
18973;SDS011;9621;48.690;9.466;2024-01-15T00:26:23;67.40;;;24.70;;
18973;SDS011;9621;48.690;9.466;2024-01-15T00:28:50;56.87;;;22.77;;
18973;SDS011;9621;48.690;9.466;2024-01-15T00:31:17;62.27;;;23.50;;
18973;SDS011;9621;48.690;9.466;2024-01-15T00:33:46;56.37;;;23.30;;
18973;SDS011;9621;48.690;9.466;2024-01-15T00:36:13;60.93;;;23.07;;
18973;SDS011;9621;48.690;9.466;2024-01-15T00:38:41;58.53;;;23.30;;
18973;SDS011;9621;48.690;9.466;2024-01-15T00:41:09;60.30;;;23.87;;
18973;SDS011;9621;48.690;9.466;2024-01-15T00:43:36;65.30;;;24.83;;
18973;SDS011;9621;48.690;9.466;2024-01-15T00:46:03;64.37;;;25.03;;
18973;SDS011;9621;48.690;9.466;2024-01-15T00:48:30;60.13;;;22.90;;
18973;SDS011;9621;48.690;9.466;2024-01-15T00:50:59;55.37;;;23.07;;
18973;SDS011;9621;48.690;9.466;2024-01-15T00:53:26;68.17;;;22.93;;
18973;SDS011;9621;48.690;9.466;2024-01-15T00:55:53;61.73;;;24.00;;
18973;SDS011;9621;48.690;9.466;2024-01-15T00:58:20;63.23;;;24.87;;
18973;SDS011;9621;48.690;9.466;2024-01-15T01:00:47;69.33;;;26.77;;
18973;SDS011;9621;48.690;9.466;2024-01-15T01:03:14;63.10;;;23.20;;
18973;SDS011;9621;48.690;9.466;2024-01-15T01:05:41;71.17;;;26.37;;
18973;SDS011;9621;48.690;9.466;2024-01-15T01:08:09;68.53;;;26.70;;
18973;SDS011;9621;48.690;9.466;2024-01-15T01:10:36;71.13;;;26.23;;
18973;SDS011;9621;48.690;9.466;2024-01-15T01:13:03;64.37;;;26.47;;
18973;SDS011;9621;48.690;9.466;2024-01-15T01:15:30;61.17;;;25.27;;
18973;SDS011;9621;48.690;9.466;2024-01-15T01:17:57;67.60;;;26.10;;
18973;SDS011;9621;48.690;9.466;2024-01-15T01:20:24;58.13;;;23.67;;
18973;SDS011;9621;48.690;9.466;2024-01-15T01:22:51;61.27;;;25.57;;
18973;SDS011;9621;48.690;9.466;2024-01-15T01:25:19;51.70;;;21.03;;
18973;SDS011;9621;48.690;9.466;2024-01-15T01:27:46;43.90;;;16.87;;
18973;SDS011;9621;48.690;9.466;2024-01-15T01:30:13;35.63;;;14.80;;
18973;SDS011;9621;48.690;9.466;2024-01-15T01:32:40;51.67;;;20.53;;
18973;SDS011;9621;48.690;9.466;2024-01-15T01:35:07;53.77;;;22.00;;
18973;SDS011;9621;48.690;9.466;2024-01-15T01:37:34;39.10;;;18.13;;
18973;SDS011;9621;48.690;9.466;2024-01-15T01:40:00;47.10;;;18.83;;
18973;SDS011;9621;48.690;9.466;2024-01-15T01:42:29;37.97;;;16.23;;
18973;SDS011;9621;48.690;9.466;2024-01-15T01:44:56;35.67;;;14.40;;
18973;SDS011;9621;48.690;9.466;2024-01-15T01:47:23;32.77;;;14.37;;
18973;SDS011;9621;48.690;9.466;2024-01-15T01:49:51;28.77;;;12.50;;
18973;SDS011;9621;48.690;9.466;2024-01-15T01:52:18;35.07;;;13.03;;
18973;SDS011;9621;48.690;9.466;2024-01-15T01:54:45;31.13;;;13.23;;
18973;SDS011;9621;48.690;9.466;2024-01-15T01:57:12;33.43;;;13.23;;
18973;SDS011;9621;48.690;9.466;2024-01-15T01:59:42;34.50;;;14.20;;
18973;SDS011;9621;48.690;9.466;2024-01-15T02:02:10;29.73;;;13.03;;
18973;SDS011;9621;48.690;9.466;2024-01-15T02:04:38;31.80;;;12.27;;
18973;SDS011;9621;48.690;9.466;2024-01-15T02:07:05;30.40;;;13.90;;
18973;SDS011;9621;48.690;9.466;2024-01-15T02:09:32;27.73;;;12.03;;
18973;SDS011;9621;48.690;9.466;2024-01-15T02:11:59;27.90;;;12.97;;
18973;SDS011;9621;48.690;9.466;2024-01-15T02:14:26;28.60;;;12.87;;
18973;SDS011;9621;48.690;9.466;2024-01-15T02:16:55;27.83;;;12.43;;
18973;SDS011;9621;48.690;9.466;2024-01-15T02:19:21;24.70;;;12.07;;
18973;SDS011;9621;48.690;9.466;2024-01-15T02:21:49;29.33;;;12.30;;
18973;SDS011;9621;48.690;9.466;2024-01-15T02:24:18;28.83;;;13.63;;
18973;SDS011;9621;48.690;9.466;2024-01-15T02:26:45;32.87;;;13.17;;
18973;SDS011;9621;48.690;9.466;2024-01-15T02:29:14;27.47;;;12.90;;
18973;SDS011;9621;48.690;9.466;2024-01-15T02:31:41;23.83;;;11.30;;
18973;SDS011;9621;48.690;9.466;2024-01-15T02:34:08;29.20;;;12.80;;
18973;SDS011;9621;48.690;9.466;2024-01-15T02:36:35;30.90;;;12.17;;
18973;SDS011;9621;48.690;9.466;2024-01-15T02:39:02;26.90;;;12.37;;
18973;SDS011;9621;48.690;9.466;2024-01-15T02:41:30;27.50;;;12.13;;
18973;SDS011;9621;48.690;9.466;2024-01-15T02:43:57;30.17;;;12.20;;
18973;SDS011;9621;48.690;9.466;2024-01-15T02:46:24;27.73;;;11.67;;
18973;SDS011;9621;48.690;9.466;2024-01-15T02:48:51;29.87;;;12.77;;
18973;SDS011;9621;48.690;9.466;2024-01-15T02:51:18;25.97;;;11.90;;
18973;SDS011;9621;48.690;9.466;2024-01-15T02:53:45;25.50;;;11.90;;
18973;SDS011;9621;48.690;9.466;2024-01-15T02:56:11;29.83;;;12.40;;
18973;SDS011;9621;48.690;9.466;2024-01-15T02:58:40;29.50;;;12.33;;
18973;SDS011;9621;48.690;9.466;2024-01-15T03:01:07;29.17;;;13.10;;
18973;SDS011;9621;48.690;9.466;2024-01-15T03:03:37;26.57;;;11.57;;
18973;SDS011;9621;48.690;9.466;2024-01-15T03:06:05;29.97;;;13.50;;
18973;SDS011;9621;48.690;9.466;2024-01-15T03:08:32;26.70;;;11.33;;
18973;SDS011;9621;48.690;9.466;2024-01-15T03:11:00;25.37;;;11.73;;
18973;SDS011;9621;48.690;9.466;2024-01-15T03:13:27;25.33;;;11.83;;
18973;SDS011;9621;48.690;9.466;2024-01-15T03:15:55;28.97;;;12.73;;
18973;SDS011;9621;48.690;9.466;2024-01-15T03:18:22;27.90;;;12.00;;
18973;SDS011;9621;48.690;9.466;2024-01-15T03:20:49;23.73;;;10.83;;
18973;SDS011;9621;48.690;9.466;2024-01-15T03:23:16;27.13;;;11.53;;
18973;SDS011;9621;48.690;9.466;2024-01-15T03:25:43;26.97;;;11.93;;
18973;SDS011;9621;48.690;9.466;2024-01-15T03:28:10;29.60;;;11.90;;
18973;SDS011;9621;48.690;9.466;2024-01-15T03:30:37;29.33;;;11.37;;
18973;SDS011;9621;48.690;9.466;2024-01-15T03:33:05;26.43;;;11.50;;
18973;SDS011;9621;48.690;9.466;2024-01-15T03:35:32;25.83;;;11.50;;
18973;SDS011;9621;48.690;9.466;2024-01-15T03:37:59;31.33;;;12.27;;
18973;SDS011;9621;48.690;9.466;2024-01-15T03:40:26;30.73;;;12.27;;
18973;SDS011;9621;48.690;9.466;2024-01-15T03:42:53;26.13;;;12.07;;
18973;SDS011;9621;48.690;9.466;2024-01-15T03:45:20;26.60;;;11.57;;
18973;SDS011;9621;48.690;9.466;2024-01-15T03:47:47;22.57;;;10.37;;
18973;SDS011;9621;48.690;9.466;2024-01-15T03:50:15;31.93;;;11.27;;
18973;SDS011;9621;48.690;9.466;2024-01-15T03:52:42;25.13;;;11.33;;
18973;SDS011;9621;48.690;9.466;2024-01-15T03:55:09;29.37;;;12.13;;
18973;SDS011;9621;48.690;9.466;2024-01-15T03:57:36;24.20;;;11.23;;
18973;SDS011;9621;48.690;9.466;2024-01-15T04:00:03;26.43;;;11.33;;
18973;SDS011;9621;48.690;9.466;2024-01-15T04:02:31;32.97;;;11.43;;
18973;SDS011;9621;48.690;9.466;2024-01-15T04:04:58;27.30;;;10.93;;
18973;SDS011;9621;48.690;9.466;2024-01-15T04:07:26;26.53;;;11.03;;
18973;SDS011;9621;48.690;9.466;2024-01-15T04:09:53;26.07;;;11.77;;
18973;SDS011;9621;48.690;9.466;2024-01-15T04:12:20;25.00;;;11.20;;
18973;SDS011;9621;48.690;9.466;2024-01-15T04:14:47;29.90;;;11.63;;
18973;SDS011;9621;48.690;9.466;2024-01-15T04:17:14;25.50;;;11.70;;
18973;SDS011;9621;48.690;9.466;2024-01-15T04:19:43;31.30;;;12.17;;
18973;SDS011;9621;48.690;9.466;2024-01-15T04:22:10;27.97;;;11.70;;
18973;SDS011;9621;48.690;9.466;2024-01-15T04:24:38;29.10;;;12.30;;
18973;SDS011;9621;48.690;9.466;2024-01-15T04:27:05;28.70;;;11.07;;
18973;SDS011;9621;48.690;9.466;2024-01-15T04:29:33;27.27;;;12.17;;
18973;SDS011;9621;48.690;9.466;2024-01-15T04:31:59;25.63;;;10.97;;
18973;SDS011;9621;48.690;9.466;2024-01-15T04:34:26;25.30;;;10.93;;
18973;SDS011;9621;48.690;9.466;2024-01-15T04:36:53;29.27;;;11.47;;
18973;SDS011;9621;48.690;9.466;2024-01-15T04:39:20;26.53;;;11.10;;
18973;SDS011;9621;48.690;9.466;2024-01-15T04:41:49;27.10;;;11.43;;
18973;SDS011;9621;48.690;9.466;2024-01-15T04:44:16;26.00;;;10.60;;
18973;SDS011;9621;48.690;9.466;2024-01-15T04:46:43;27.13;;;11.30;;
18973;SDS011;9621;48.690;9.466;2024-01-15T04:49:10;26.77;;;10.17;;
18973;SDS011;9621;48.690;9.466;2024-01-15T04:51:37;27.63;;;10.83;;
18973;SDS011;9621;48.690;9.466;2024-01-15T04:54:04;24.37;;;11.27;;
18973;SDS011;9621;48.690;9.466;2024-01-15T04:56:31;21.53;;;10.83;;
18973;SDS011;9621;48.690;9.466;2024-01-15T04:58:59;23.90;;;10.17;;
18973;SDS011;9621;48.690;9.466;2024-01-15T05:01:29;23.47;;;10.00;;
18973;SDS011;9621;48.690;9.466;2024-01-15T05:03:57;23.07;;;9.93;;
18973;SDS011;9621;48.690;9.466;2024-01-15T05:06:24;21.70;;;9.70;;
18973;SDS011;9621;48.690;9.466;2024-01-15T05:08:51;24.00;;;10.80;;
18973;SDS011;9621;48.690;9.466;2024-01-15T05:11:18;24.50;;;10.33;;
18973;SDS011;9621;48.690;9.466;2024-01-15T05:13:45;29.03;;;11.23;;
18973;SDS011;9621;48.690;9.466;2024-01-15T05:16:13;23.90;;;10.33;;
18973;SDS011;9621;48.690;9.466;2024-01-15T05:18:40;24.03;;;10.50;;
18973;SDS011;9621;48.690;9.466;2024-01-15T05:21:08;29.60;;;11.77;;
18973;SDS011;9621;48.690;9.466;2024-01-15T05:23:35;25.70;;;11.10;;
18973;SDS011;9621;48.690;9.466;2024-01-15T05:26:02;26.50;;;10.87;;
18973;SDS011;9621;48.690;9.466;2024-01-15T05:28:29;27.67;;;11.57;;
18973;SDS011;9621;48.690;9.466;2024-01-15T05:30:56;23.87;;;10.37;;
18973;SDS011;9621;48.690;9.466;2024-01-15T05:33:24;26.70;;;11.17;;
18973;SDS011;9621;48.690;9.466;2024-01-15T05:35:51;28.10;;;11.37;;
18973;SDS011;9621;48.690;9.466;2024-01-15T05:38:18;29.70;;;11.83;;
18973;SDS011;9621;48.690;9.466;2024-01-15T05:40:45;32.40;;;12.20;;
18973;SDS011;9621;48.690;9.466;2024-01-15T05:43:12;27.97;;;12.10;;
18973;SDS011;9621;48.690;9.466;2024-01-15T05:45:42;30.33;;;11.73;;
18973;SDS011;9621;48.690;9.466;2024-01-15T05:48:09;29.97;;;12.63;;
18973;SDS011;9621;48.690;9.466;2024-01-15T05:50:38;25.27;;;11.80;;
18973;SDS011;9621;48.690;9.466;2024-01-15T05:53:05;27.43;;;12.37;;
18973;SDS011;9621;48.690;9.466;2024-01-15T05:55:32;32.60;;;11.87;;
18973;SDS011;9621;48.690;9.466;2024-01-15T05:57:59;28.70;;;11.40;;
18973;SDS011;9621;48.690;9.466;2024-01-15T06:00:25;31.10;;;11.90;;
18973;SDS011;9621;48.690;9.466;2024-01-15T06:02:52;24.77;;;11.40;;
18973;SDS011;9621;48.690;9.466;2024-01-15T06:05:19;28.87;;;11.50;;
18973;SDS011;9621;48.690;9.466;2024-01-15T06:07:47;31.67;;;12.67;;
18973;SDS011;9621;48.690;9.466;2024-01-15T06:10:14;27.47;;;11.60;;
18973;SDS011;9621;48.690;9.466;2024-01-15T06:12:42;28.50;;;12.70;;
18973;SDS011;9621;48.690;9.466;2024-01-15T06:15:09;24.37;;;11.07;;
18973;SDS011;9621;48.690;9.466;2024-01-15T06:17:36;29.77;;;12.73;;
18973;SDS011;9621;48.690;9.466;2024-01-15T06:20:03;28.37;;;12.13;;
18973;SDS011;9621;48.690;9.466;2024-01-15T06:22:31;24.10;;;11.23;;
18973;SDS011;9621;48.690;9.466;2024-01-15T06:25:00;30.83;;;12.10;;
18973;SDS011;9621;48.690;9.466;2024-01-15T06:27:26;21.13;;;11.27;;
18973;SDS011;9621;48.690;9.466;2024-01-15T06:29:53;29.23;;;11.93;;
18973;SDS011;9621;48.690;9.466;2024-01-15T06:32:21;26.90;;;12.63;;
18973;SDS011;9621;48.690;9.466;2024-01-15T06:34:48;28.60;;;12.00;;
18973;SDS011;9621;48.690;9.466;2024-01-15T06:37:14;24.93;;;11.33;;
18973;SDS011;9621;48.690;9.466;2024-01-15T06:39:44;24.67;;;12.10;;
18973;SDS011;9621;48.690;9.466;2024-01-15T06:42:12;24.50;;;11.73;;
18973;SDS011;9621;48.690;9.466;2024-01-15T06:44:39;24.10;;;10.80;;
18973;SDS011;9621;48.690;9.466;2024-01-15T06:47:06;22.53;;;10.30;;
18973;SDS011;9621;48.690;9.466;2024-01-15T06:49:32;23.73;;;11.23;;
18973;SDS011;9621;48.690;9.466;2024-01-15T06:51:59;24.40;;;11.83;;
18973;SDS011;9621;48.690;9.466;2024-01-15T06:54:26;25.67;;;12.10;;
18973;SDS011;9621;48.690;9.466;2024-01-15T06:56:53;23.10;;;11.40;;
18973;SDS011;9621;48.690;9.466;2024-01-15T06:59:22;25.77;;;11.83;;
18973;SDS011;9621;48.690;9.466;2024-01-15T07:01:49;21.43;;;10.47;;
18973;SDS011;9621;48.690;9.466;2024-01-15T07:04:16;28.27;;;11.77;;
18973;SDS011;9621;48.690;9.466;2024-01-15T07:06:43;25.33;;;11.23;;
18973;SDS011;9621;48.690;9.466;2024-01-15T07:09:10;24.73;;;11.20;;
18973;SDS011;9621;48.690;9.466;2024-01-15T07:11:37;20.40;;;10.90;;
18973;SDS011;9621;48.690;9.466;2024-01-15T07:14:04;22.00;;;10.97;;
18973;SDS011;9621;48.690;9.466;2024-01-15T07:16:33;21.80;;;10.93;;
18973;SDS011;9621;48.690;9.466;2024-01-15T07:18:59;25.63;;;11.37;;
18973;SDS011;9621;48.690;9.466;2024-01-15T07:21:26;26.23;;;11.47;;
18973;SDS011;9621;48.690;9.466;2024-01-15T07:23:53;25.93;;;10.73;;
18973;SDS011;9621;48.690;9.466;2024-01-15T07:26:20;21.47;;;10.10;;
18973;SDS011;9621;48.690;9.466;2024-01-15T07:28:47;23.03;;;10.87;;
18973;SDS011;9621;48.690;9.466;2024-01-15T07:31:15;22.13;;;10.40;;
18973;SDS011;9621;48.690;9.466;2024-01-15T07:33:43;20.00;;;10.33;;
18973;SDS011;9621;48.690;9.466;2024-01-15T07:36:11;22.57;;;10.80;;
18973;SDS011;9621;48.690;9.466;2024-01-15T07:38:38;22.20;;;10.37;;
18973;SDS011;9621;48.690;9.466;2024-01-15T07:41:04;23.00;;;10.23;;
18973;SDS011;9621;48.690;9.466;2024-01-15T07:43:31;23.40;;;10.77;;
18973;SDS011;9621;48.690;9.466;2024-01-15T07:45:58;22.63;;;10.37;;
18973;SDS011;9621;48.690;9.466;2024-01-15T07:48:25;21.73;;;10.60;;
18973;SDS011;9621;48.690;9.466;2024-01-15T07:50:54;20.83;;;10.23;;
18973;SDS011;9621;48.690;9.466;2024-01-15T07:53:21;19.87;;;9.93;;
18973;SDS011;9621;48.690;9.466;2024-01-15T07:55:48;20.57;;;9.97;;
18973;SDS011;9621;48.690;9.466;2024-01-15T07:58:15;23.73;;;10.27;;
18973;SDS011;9621;48.690;9.466;2024-01-15T08:00:42;24.67;;;10.30;;
18973;SDS011;9621;48.690;9.466;2024-01-15T08:03:10;19.47;;;9.13;;
18973;SDS011;9621;48.690;9.466;2024-01-15T08:05:37;25.67;;;9.87;;
18973;SDS011;9621;48.690;9.466;2024-01-15T08:08:06;20.67;;;9.57;;
18973;SDS011;9621;48.690;9.466;2024-01-15T08:10:33;20.90;;;9.77;;
18973;SDS011;9621;48.690;9.466;2024-01-15T08:13:00;19.00;;;9.33;;
18973;SDS011;9621;48.690;9.466;2024-01-15T08:15:27;22.47;;;9.43;;
18973;SDS011;9621;48.690;9.466;2024-01-15T08:17:53;20.53;;;9.93;;
18973;SDS011;9621;48.690;9.466;2024-01-15T08:20:20;26.87;;;10.53;;
18973;SDS011;9621;48.690;9.466;2024-01-15T08:22:47;18.93;;;9.40;;
18973;SDS011;9621;48.690;9.466;2024-01-15T08:25:16;20.63;;;10.03;;
18973;SDS011;9621;48.690;9.466;2024-01-15T08:27:43;19.20;;;10.30;;
18973;SDS011;9621;48.690;9.466;2024-01-15T08:30:10;20.47;;;10.00;;
18973;SDS011;9621;48.690;9.466;2024-01-15T08:32:38;19.13;;;9.97;;
18973;SDS011;9621;48.690;9.466;2024-01-15T08:35:07;21.23;;;10.30;;
18973;SDS011;9621;48.690;9.466;2024-01-15T08:37:34;21.57;;;9.87;;
18973;SDS011;9621;48.690;9.466;2024-01-15T08:40:01;26.77;;;10.80;;
18973;SDS011;9621;48.690;9.466;2024-01-15T08:42:31;21.67;;;9.97;;
18973;SDS011;9621;48.690;9.466;2024-01-15T08:44:58;24.93;;;10.20;;
18973;SDS011;9621;48.690;9.466;2024-01-15T08:47:25;25.13;;;10.27;;
18973;SDS011;9621;48.690;9.466;2024-01-15T08:49:52;20.23;;;9.73;;
18973;SDS011;9621;48.690;9.466;2024-01-15T08:52:19;22.63;;;9.43;;
18973;SDS011;9621;48.690;9.466;2024-01-15T08:54:46;22.43;;;9.63;;
18973;SDS011;9621;48.690;9.466;2024-01-15T08:57:14;19.87;;;9.20;;
18973;SDS011;9621;48.690;9.466;2024-01-15T08:59:42;24.83;;;9.97;;
18973;SDS011;9621;48.690;9.466;2024-01-15T09:02:10;19.97;;;8.90;;
18973;SDS011;9621;48.690;9.466;2024-01-15T09:04:37;17.20;;;8.10;;
18973;SDS011;9621;48.690;9.466;2024-01-15T09:07:04;19.30;;;8.80;;
18973;SDS011;9621;48.690;9.466;2024-01-15T09:09:31;19.67;;;9.00;;
18973;SDS011;9621;48.690;9.466;2024-01-15T09:11:59;16.17;;;8.07;;
18973;SDS011;9621;48.690;9.466;2024-01-15T09:14:26;22.10;;;8.60;;
18973;SDS011;9621;48.690;9.466;2024-01-15T09:16:55;17.40;;;8.50;;
18973;SDS011;9621;48.690;9.466;2024-01-15T09:19:22;19.33;;;8.90;;
18973;SDS011;9621;48.690;9.466;2024-01-15T09:21:49;18.60;;;8.30;;
18973;SDS011;9621;48.690;9.466;2024-01-15T09:24:16;17.50;;;7.60;;
18973;SDS011;9621;48.690;9.466;2024-01-15T09:26:43;17.43;;;8.03;;
18973;SDS011;9621;48.690;9.466;2024-01-15T09:29:10;14.93;;;7.17;;
18973;SDS011;9621;48.690;9.466;2024-01-15T09:31:36;14.77;;;6.93;;
18973;SDS011;9621;48.690;9.466;2024-01-15T09:34:05;16.33;;;6.83;;
18973;SDS011;9621;48.690;9.466;2024-01-15T09:36:32;17.10;;;7.07;;
18973;SDS011;9621;48.690;9.466;2024-01-15T09:38:59;14.20;;;6.60;;
18973;SDS011;9621;48.690;9.466;2024-01-15T09:41:26;12.33;;;6.30;;
18973;SDS011;9621;48.690;9.466;2024-01-15T09:43:53;20.87;;;6.67;;
18973;SDS011;9621;48.690;9.466;2024-01-15T09:46:20;14.07;;;6.47;;
18973;SDS011;9621;48.690;9.466;2024-01-15T09:48:47;14.03;;;6.40;;
18973;SDS011;9621;48.690;9.466;2024-01-15T09:51:15;14.30;;;6.20;;
18973;SDS011;9621;48.690;9.466;2024-01-15T09:53:43;12.90;;;5.80;;
18973;SDS011;9621;48.690;9.466;2024-01-15T09:56:11;15.23;;;5.97;;
18973;SDS011;9621;48.690;9.466;2024-01-15T09:58:38;13.10;;;5.20;;
18973;SDS011;9621;48.690;9.466;2024-01-15T10:01:07;12.30;;;6.17;;
18973;SDS011;9621;48.690;9.466;2024-01-15T10:03:35;14.13;;;5.70;;
18973;SDS011;9621;48.690;9.466;2024-01-15T10:06:03;11.73;;;5.57;;
18973;SDS011;9621;48.690;9.466;2024-01-15T10:08:34;10.83;;;5.03;;
18973;SDS011;9621;48.690;9.466;2024-01-15T10:11:02;9.97;;;5.40;;
18973;SDS011;9621;48.690;9.466;2024-01-15T10:13:30;10.03;;;5.00;;
18973;SDS011;9621;48.690;9.466;2024-01-15T10:15:57;10.97;;;5.40;;
18973;SDS011;9621;48.690;9.466;2024-01-15T10:18:25;9.80;;;5.23;;
18973;SDS011;9621;48.690;9.466;2024-01-15T10:20:52;9.53;;;5.27;;
18973;SDS011;9621;48.690;9.466;2024-01-15T10:23:19;10.33;;;4.57;;
18973;SDS011;9621;48.690;9.466;2024-01-15T10:25:47;11.73;;;5.10;;
18973;SDS011;9621;48.690;9.466;2024-01-15T10:28:16;9.50;;;4.43;;
18973;SDS011;9621;48.690;9.466;2024-01-15T10:30:45;9.20;;;4.77;;
18973;SDS011;9621;48.690;9.466;2024-01-15T10:33:12;8.63;;;5.07;;
18973;SDS011;9621;48.690;9.466;2024-01-15T10:35:40;10.40;;;5.00;;
18973;SDS011;9621;48.690;9.466;2024-01-15T10:38:07;10.77;;;5.17;;
18973;SDS011;9621;48.690;9.466;2024-01-15T10:40:34;12.10;;;4.67;;
18973;SDS011;9621;48.690;9.466;2024-01-15T10:43:02;11.40;;;4.10;;
18973;SDS011;9621;48.690;9.466;2024-01-15T10:45:30;12.77;;;4.33;;
18973;SDS011;9621;48.690;9.466;2024-01-15T10:47:56;6.87;;;4.37;;
18973;SDS011;9621;48.690;9.466;2024-01-15T10:50:25;7.77;;;4.70;;
18973;SDS011;9621;48.690;9.466;2024-01-15T10:52:52;9.87;;;4.10;;
18973;SDS011;9621;48.690;9.466;2024-01-15T10:55:19;10.23;;;4.13;;
18973;SDS011;9621;48.690;9.466;2024-01-15T10:57:47;9.83;;;4.57;;
18973;SDS011;9621;48.690;9.466;2024-01-15T11:00:16;9.17;;;4.40;;
18973;SDS011;9621;48.690;9.466;2024-01-15T11:02:44;7.83;;;4.23;;
18973;SDS011;9621;48.690;9.466;2024-01-15T11:05:11;10.70;;;4.63;;
18973;SDS011;9621;48.690;9.466;2024-01-15T11:07:39;10.93;;;4.43;;
18973;SDS011;9621;48.690;9.466;2024-01-15T11:10:07;7.67;;;4.47;;
18973;SDS011;9621;48.690;9.466;2024-01-15T11:12:55;11.67;;;4.17;;
18973;SDS011;9621;48.690;9.466;2024-01-15T11:15:23;8.93;;;3.93;;
18973;SDS011;9621;48.690;9.466;2024-01-15T11:17:57;6.87;;;4.10;;
18973;SDS011;9621;48.690;9.466;2024-01-15T11:20:28;8.07;;;3.93;;
18973;SDS011;9621;48.690;9.466;2024-01-15T11:22:56;7.87;;;4.10;;
18973;SDS011;9621;48.690;9.466;2024-01-15T11:25:24;9.30;;;4.13;;
18973;SDS011;9621;48.690;9.466;2024-01-15T11:28:02;7.40;;;4.00;;
18973;SDS011;9621;48.690;9.466;2024-01-15T11:30:31;8.37;;;4.17;;
18973;SDS011;9621;48.690;9.466;2024-01-15T11:33:01;9.00;;;4.67;;
18973;SDS011;9621;48.690;9.466;2024-01-15T11:38:24;12.53;;;3.50;;
18973;SDS011;9621;48.690;9.466;2024-01-15T11:40:54;6.67;;;3.77;;
18973;SDS011;9621;48.690;9.466;2024-01-15T11:43:21;8.27;;;4.07;;
18973;SDS011;9621;48.690;9.466;2024-01-15T11:45:51;7.00;;;4.30;;
18973;SDS011;9621;48.690;9.466;2024-01-15T11:48:19;13.73;;;5.10;;
18973;SDS011;9621;48.690;9.466;2024-01-15T11:50:49;7.23;;;4.53;;
18973;SDS011;9621;48.690;9.466;2024-01-15T11:53:21;7.57;;;4.17;;
18973;SDS011;9621;48.690;9.466;2024-01-15T11:55:56;6.73;;;3.70;;
18973;SDS011;9621;48.690;9.466;2024-01-15T11:58:25;8.57;;;4.27;;
18973;SDS011;9621;48.690;9.466;2024-01-15T12:00:54;10.40;;;4.73;;
18973;SDS011;9621;48.690;9.466;2024-01-15T12:03:21;7.47;;;4.07;;
18973;SDS011;9621;48.690;9.466;2024-01-15T12:05:48;7.40;;;3.97;;
18973;SDS011;9621;48.690;9.466;2024-01-15T12:08:20;6.70;;;4.17;;
18973;SDS011;9621;48.690;9.466;2024-01-15T12:10:47;8.53;;;4.73;;
18973;SDS011;9621;48.690;9.466;2024-01-15T12:13:14;9.90;;;4.57;;
18973;SDS011;9621;48.690;9.466;2024-01-15T12:15:43;10.13;;;4.50;;
18973;SDS011;9621;48.690;9.466;2024-01-15T12:18:12;9.50;;;4.43;;
18973;SDS011;9621;48.690;9.466;2024-01-15T12:20:40;8.50;;;5.20;;
18973;SDS011;9621;48.690;9.466;2024-01-15T12:23:08;7.90;;;4.50;;
18973;SDS011;9621;48.690;9.466;2024-01-15T12:25:36;9.37;;;5.07;;
18973;SDS011;9621;48.690;9.466;2024-01-15T12:28:03;9.60;;;4.60;;
18973;SDS011;9621;48.690;9.466;2024-01-15T12:30:32;9.97;;;4.40;;
18973;SDS011;9621;48.690;9.466;2024-01-15T12:33:03;9.47;;;4.13;;
18973;SDS011;9621;48.690;9.466;2024-01-15T12:35:33;11.50;;;4.13;;
18973;SDS011;9621;48.690;9.466;2024-01-15T12:38:00;9.23;;;5.03;;
18973;SDS011;9621;48.690;9.466;2024-01-15T12:40:28;8.37;;;5.40;;
18973;SDS011;9621;48.690;9.466;2024-01-15T12:42:56;9.90;;;5.20;;
18973;SDS011;9621;48.690;9.466;2024-01-15T12:45:23;9.50;;;5.40;;
18973;SDS011;9621;48.690;9.466;2024-01-15T12:47:50;10.67;;;4.73;;
18973;SDS011;9621;48.690;9.466;2024-01-15T12:50:17;8.80;;;5.00;;
18973;SDS011;9621;48.690;9.466;2024-01-15T12:52:46;8.90;;;4.87;;
18973;SDS011;9621;48.690;9.466;2024-01-15T12:55:13;9.40;;;5.23;;
18973;SDS011;9621;48.690;9.466;2024-01-15T12:57:40;11.97;;;5.80;;
18973;SDS011;9621;48.690;9.466;2024-01-15T13:00:07;12.43;;;5.30;;
18973;SDS011;9621;48.690;9.466;2024-01-15T13:02:37;10.27;;;5.63;;
18973;SDS011;9621;48.690;9.466;2024-01-15T13:05:05;9.00;;;5.70;;
18973;SDS011;9621;48.690;9.466;2024-01-15T13:07:33;10.50;;;5.60;;
18973;SDS011;9621;48.690;9.466;2024-01-15T13:10:01;11.20;;;5.67;;
18973;SDS011;9621;48.690;9.466;2024-01-15T13:12:28;9.03;;;5.53;;
18973;SDS011;9621;48.690;9.466;2024-01-15T13:14:55;10.60;;;5.93;;
18973;SDS011;9621;48.690;9.466;2024-01-15T13:17:24;10.83;;;5.93;;
18973;SDS011;9621;48.690;9.466;2024-01-15T13:19:51;12.23;;;5.43;;
18973;SDS011;9621;48.690;9.466;2024-01-15T13:22:17;10.43;;;5.60;;
18973;SDS011;9621;48.690;9.466;2024-01-15T13:24:45;13.60;;;6.57;;
18973;SDS011;9621;48.690;9.466;2024-01-15T13:27:13;9.37;;;6.20;;
18973;SDS011;9621;48.690;9.466;2024-01-15T13:29:40;13.73;;;6.00;;
18973;SDS011;9621;48.690;9.466;2024-01-15T13:32:07;12.37;;;6.10;;
18973;SDS011;9621;48.690;9.466;2024-01-15T13:34:39;10.73;;;6.30;;
18973;SDS011;9621;48.690;9.466;2024-01-15T13:37:06;11.07;;;6.33;;
18973;SDS011;9621;48.690;9.466;2024-01-15T13:39:34;10.53;;;5.57;;
18973;SDS011;9621;48.690;9.466;2024-01-15T13:42:02;13.80;;;6.27;;
18973;SDS011;9621;48.690;9.466;2024-01-15T13:44:30;13.60;;;6.13;;
18973;SDS011;9621;48.690;9.466;2024-01-15T13:46:57;12.20;;;6.20;;
18973;SDS011;9621;48.690;9.466;2024-01-15T13:49:24;13.30;;;6.87;;
18973;SDS011;9621;48.690;9.466;2024-01-15T13:51:51;15.67;;;6.80;;
18973;SDS011;9621;48.690;9.466;2024-01-15T13:54:18;11.73;;;6.50;;
18973;SDS011;9621;48.690;9.466;2024-01-15T13:56:46;13.13;;;6.50;;
18973;SDS011;9621;48.690;9.466;2024-01-15T13:59:13;11.23;;;6.40;;
18973;SDS011;9621;48.690;9.466;2024-01-15T14:01:41;10.13;;;6.30;;
18973;SDS011;9621;48.690;9.466;2024-01-15T14:04:09;11.60;;;6.90;;
18973;SDS011;9621;48.690;9.466;2024-01-15T14:06:35;13.97;;;7.07;;
18973;SDS011;9621;48.690;9.466;2024-01-15T14:09:04;10.57;;;6.23;;
18973;SDS011;9621;48.690;9.466;2024-01-15T14:11:35;12.73;;;6.13;;
18973;SDS011;9621;48.690;9.466;2024-01-15T14:14:02;11.23;;;6.07;;
18973;SDS011;9621;48.690;9.466;2024-01-15T14:16:29;12.07;;;6.43;;
18973;SDS011;9621;48.690;9.466;2024-01-15T14:18:57;15.23;;;6.27;;
18973;SDS011;9621;48.690;9.466;2024-01-15T14:21:24;13.07;;;6.57;;
18973;SDS011;9621;48.690;9.466;2024-01-15T14:23:51;14.53;;;6.50;;
18973;SDS011;9621;48.690;9.466;2024-01-15T14:26:21;11.30;;;6.23;;
18973;SDS011;9621;48.690;9.466;2024-01-15T14:28:48;10.80;;;6.33;;
18973;SDS011;9621;48.690;9.466;2024-01-15T14:31:15;14.03;;;7.13;;
18973;SDS011;9621;48.690;9.466;2024-01-15T14:33:42;13.07;;;6.40;;
18973;SDS011;9621;48.690;9.466;2024-01-15T14:36:10;10.47;;;6.27;;
18973;SDS011;9621;48.690;9.466;2024-01-15T14:38:37;11.37;;;6.13;;
18973;SDS011;9621;48.690;9.466;2024-01-15T14:41:04;12.87;;;7.07;;
18973;SDS011;9621;48.690;9.466;2024-01-15T14:43:31;10.73;;;6.30;;
18973;SDS011;9621;48.690;9.466;2024-01-15T14:45:59;10.67;;;6.23;;
18973;SDS011;9621;48.690;9.466;2024-01-15T14:48:26;9.47;;;5.77;;